Gambell, AK

10:59 AM AKDT on September 25, 2016 (GMT -0800)
Gambell

Weather History for PAGM - June, 2013

Change the Weather History Date:

Sunday, June 16, 2013

  Actual Average Record
Temperature  
Mean Temperature 42 °F -  
Max Temperature 46 °F 42 °F 57 °F (2002)
Min Temperature 37 °F 35 °F 33 °F (1999)
Degree Days  
Heating Degree Days 24    
Moisture  
Dew Point 37 °F    
Average Humidity 86    
Maximum Humidity 93    
Minimum Humidity 71    
Precipitation  
Precipitation 0.05 in - - ()
Sea Level Pressure  
Sea Level Pressure 30.24 in    
Wind  
Wind Speed 14 mph (ESE)    
Max Wind Speed 25 mph    
Max Gust Speed -    
Visibility 9 miles    
Events      
Averages and records for this station are not official NWS values.
T = Trace of Precipitation, MM = Missing Value Source: NWS Daily Summary

Daily Weather History Graph

Daily Weather History Graph

Search for Another Location

Airport or City:

Trip Planner

Search our weather history database for the weather conditions in past years. The results will help you decide how hot, cold, wet, or windy it might be!

Date:

Astronomy

Jun. 16, 2013 Rise Set
Actual Time 5:04 AM AKDT 1:51 AM AKDT
Civil Twilight Sun does not set Sun does not set
Nautical Twilight Sun does not set Sun does not set
Astronomical Twilight Sun does not set Sun does not set
Moon 4:04 PM AKDT (6/16) 3:05 AM AKDT (6/16)
Length of Visible Light 24h 00m
Length of Day
20h 47m
Waxing Crescent, 51% of the Moon is Illuminated
Jun 16
Waxing Crescent
Jun 23
Full
Jun 29
Last Quarter
Jul 7
New
Jul 15
First Quarter

Hourly Weather History & Observations

Time (AKDT) Temp. Windchill Dew Point Humidity Pressure Visibility Wind Dir Wind Speed Gust Speed Precip Events Conditions
12:16 AM 39.2 °F 31.6 °F 37.4 °F 93% 30.04 in 3.0 mi SSE 12.7 mph - N/A   Overcast
12:36 AM 39.2 °F 30.8 °F 37.4 °F 93% 30.05 in 2.5 mi SSE 15.0 mph - N/A   Overcast
12:56 AM 39.2 °F 30.8 °F 37.4 °F 93% 30.06 in 0.8 mi SSE 15.0 mph - N/A   Overcast
1:16 AM 37.4 °F 26.6 °F 35.6 °F 93% 30.07 in 0.8 mi South 21.9 mph - N/A   Overcast
1:36 AM 37.4 °F 26.9 °F 35.6 °F 93% 30.07 in 2.0 mi South 20.7 mph - N/A   Overcast
1:56 AM 37.4 °F 25.9 °F 35.6 °F 93% 30.08 in 2.5 mi SSE 25.3 mph - N/A   Overcast
2:16 AM 37.4 °F 26.6 °F 35.6 °F 93% 30.09 in 5.0 mi SSE 21.9 mph - N/A   Overcast
2:36 AM 37.4 °F 26.1 °F 35.6 °F 93% 30.10 in 10.0 mi SSE 24.2 mph - N/A   Overcast
2:56 AM 37.4 °F 26.9 °F 35.6 °F 93% 30.10 in 8.0 mi SSE 20.7 mph - N/A   Overcast
3:16 AM 37.4 °F 25.9 °F 35.6 °F 93% 30.11 in 10.0 mi SSE 25.3 mph - N/A   Overcast
3:36 AM 37.4 °F 26.4 °F 35.6 °F 93% 30.12 in 10.0 mi SSE 23.0 mph - N/A   Overcast
3:56 AM 37.4 °F 26.1 °F 35.6 °F 93% 30.12 in 10.0 mi SSE 24.2 mph - N/A   Overcast
4:16 AM 37.4 °F 27.2 °F 35.6 °F 93% 30.13 in 10.0 mi SSE 19.6 mph - N/A   Overcast
4:36 AM 37.4 °F 27.8 °F 35.6 °F 93% 30.14 in 10.0 mi SSE 17.3 mph - N/A   Overcast
4:56 AM 37.4 °F 28.5 °F 35.6 °F 93% 30.15 in 10.0 mi SSE 15.0 mph - N/A   Overcast
5:16 AM 37.4 °F 30.3 °F 35.6 °F 93% 30.16 in 10.0 mi SE 10.4 mph - N/A   Overcast
5:36 AM 37.4 °F 27.5 °F 35.6 °F 93% 30.16 in 10.0 mi SE 18.4 mph - N/A   Overcast
5:56 AM 37.4 °F 30.8 °F 35.6 °F 93% 30.17 in 10.0 mi ESE 9.2 mph - N/A   Overcast
6:16 AM 37.4 °F 30.8 °F 35.6 °F 93% 30.18 in 10.0 mi SE 9.2 mph - N/A   Overcast
6:36 AM 37.4 °F 27.8 °F 35.6 °F 93% 30.18 in 10.0 mi SSE 17.3 mph - N/A   Overcast
6:56 AM 37.4 °F 28.5 °F 35.6 °F 93% 30.19 in 10.0 mi SSE 15.0 mph - N/A   Overcast
7:16 AM 37.4 °F 29.8 °F 35.6 °F 93% 30.19 in 10.0 mi SE 11.5 mph - N/A   Overcast
7:36 AM 37.4 °F 28.9 °F 35.6 °F 93% 30.20 in 10.0 mi SSE 13.8 mph - N/A   Overcast
7:56 AM 37.4 °F 30.8 °F 35.6 °F 93% 30.21 in 10.0 mi SE 9.2 mph - N/A   Overcast
8:16 AM 39.2 °F 30.5 °F 35.6 °F 87% 30.21 in 10.0 mi SSE 16.1 mph - N/A   Overcast
8:36 AM 39.2 °F 31.6 °F 35.6 °F 87% 30.22 in 10.0 mi SSE 12.7 mph - N/A   Overcast
8:56 AM 39.2 °F 31.2 °F 35.6 °F 87% 30.23 in 10.0 mi SSE 13.8 mph - N/A   Overcast
9:16 AM 39.2 °F 33.0 °F 35.6 °F 87% 30.23 in 10.0 mi SSE 9.2 mph - N/A   Overcast
9:36 AM 39.2 °F 32.0 °F 35.6 °F 87% 30.23 in 10.0 mi SE 11.5 mph - N/A   Overcast
9:56 AM 39.2 °F 32.5 °F 37.4 °F 93% 30.24 in 10.0 mi SSE 10.4 mph - N/A   Overcast
10:16 AM 39.2 °F 32.5 °F 35.6 °F 87% 30.25 in 10.0 mi SE 10.4 mph - N/A   Overcast
10:36 AM 39.2 °F 32.5 °F 35.6 °F 87% 30.25 in 10.0 mi SSE 10.4 mph - N/A   Overcast
10:56 AM 41.0 °F 33.9 °F 37.4 °F 87% 30.25 in 10.0 mi SSE 12.7 mph - N/A   Overcast
11:16 AM 42.8 °F 36.2 °F 37.4 °F 81% 30.26 in 10.0 mi SE 12.7 mph - N/A   Overcast
11:36 AM 42.8 °F 37.0 °F 37.4 °F 81% 30.26 in 10.0 mi SE 10.4 mph - N/A   Overcast
11:56 AM 42.8 °F 35.1 °F 37.4 °F 81% 30.26 in 10.0 mi SE 16.1 mph - N/A   Overcast
12:16 PM 42.8 °F 36.6 °F 37.4 °F 81% 30.27 in 10.0 mi SSE 11.5 mph - N/A   Overcast
12:36 PM 42.8 °F 36.2 °F 37.4 °F 81% 30.28 in 10.0 mi SE 12.7 mph - N/A   Overcast
12:56 PM 42.8 °F 36.6 °F 37.4 °F 81% 30.28 in 10.0 mi SSE 11.5 mph - N/A   Overcast
1:16 PM 42.8 °F 37.5 °F 37.4 °F 81% 30.29 in 10.0 mi SE 9.2 mph - N/A   Overcast
1:36 PM 42.8 °F 38.6 °F 37.4 °F 81% 30.30 in 10.0 mi ESE 6.9 mph - N/A   Overcast
1:56 PM 42.8 °F - 37.4 °F 81% 30.30 in 10.0 mi Calm Calm - N/A   Overcast
2:16 PM 44.6 °F 40.7 °F 37.4 °F 76% 30.30 in 10.0 mi SSE 6.9 mph - 0.04 in   Mostly Cloudy
2:36 PM 44.6 °F 41.4 °F 37.4 °F 76% 30.30 in 10.0 mi North 5.8 mph - 0.04 in   Mostly Cloudy
2:56 PM 44.6 °F - 37.4 °F 76% 30.31 in 10.0 mi Calm Calm - 0.04 in   Overcast
3:16 PM 46.4 °F 45.2 °F 37.4 °F 71% 30.31 in 10.0 mi North 3.5 mph - 0.01 in   Overcast
3:36 PM 44.6 °F 40.7 °F 37.4 °F 76% 30.31 in 10.0 mi ESE 6.9 mph - 0.01 in   Overcast
3:56 PM 44.6 °F 40.7 °F 39.2 °F 81% 30.31 in 10.0 mi ENE 6.9 mph - 0.01 in   Overcast
4:16 PM 44.6 °F 40.2 °F 39.2 °F 81% 30.32 in 10.0 mi ENE 8.1 mph - N/A   Overcast
4:36 PM 44.6 °F 40.2 °F 39.2 °F 81% 30.32 in 10.0 mi East 8.1 mph - N/A   Overcast
4:56 PM 44.6 °F 39.7 °F 39.2 °F 81% 30.32 in 10.0 mi East 9.2 mph - N/A   Overcast
5:16 PM 44.6 °F 40.7 °F 39.2 °F 81% 30.32 in 10.0 mi ENE 6.9 mph - N/A   Overcast
5:36 PM 42.8 °F 37.0 °F 37.4 °F 81% 30.32 in 10.0 mi NE 10.4 mph - N/A   Overcast
5:56 PM 42.8 °F 38.0 °F 39.2 °F 87% 30.32 in 10.0 mi East 8.1 mph - N/A   Overcast
6:16 PM 42.8 °F - 39.2 °F 87% 30.32 in 10.0 mi Calm Calm - N/A   Overcast
6:36 PM 42.8 °F 40.1 °F 39.2 °F 87% 30.33 in 10.0 mi NE 4.6 mph - N/A   Overcast
6:56 PM 42.8 °F 40.1 °F 39.2 °F 87% 30.32 in 10.0 mi NE 4.6 mph - N/A   Overcast
7:16 PM 44.6 °F 42.2 °F 39.2 °F 81% 30.32 in 10.0 mi ENE 4.6 mph - N/A   Overcast
7:36 PM 44.6 °F 43.1 °F 39.2 °F 81% 30.32 in 10.0 mi ENE 3.5 mph - N/A   Mostly Cloudy
7:56 PM 44.6 °F 42.2 °F 39.2 °F 81% 30.32 in 10.0 mi NNE 4.6 mph - N/A   Scattered Clouds
8:16 PM 44.6 °F 43.1 °F 39.2 °F 81% 30.32 in 10.0 mi NNE 3.5 mph - N/A   Mostly Cloudy
8:36 PM 44.6 °F 39.2 °F 39.2 °F 81% 30.32 in 10.0 mi NNE 10.4 mph - N/A   Mostly Cloudy
8:56 PM 42.8 °F 37.5 °F 39.2 °F 87% 30.32 in 10.0 mi NE 9.2 mph - N/A   Mostly Cloudy
9:16 PM 42.8 °F 39.3 °F 39.2 °F 87% 30.32 in 10.0 mi NNE 5.8 mph - N/A   Overcast
9:36 PM 42.8 °F 37.5 °F 37.4 °F 81% 30.31 in 10.0 mi NE 9.2 mph - N/A   Overcast
9:56 PM 42.8 °F 37.0 °F 37.4 °F 81% 30.31 in 10.0 mi NE 10.4 mph - N/A   Overcast
10:16 PM 42.8 °F 37.5 °F 37.4 °F 81% 30.31 in 10.0 mi NE 9.2 mph - N/A   Overcast
10:36 PM 42.8 °F 38.0 °F 37.4 °F 81% 30.32 in 10.0 mi NE 8.1 mph - N/A   Overcast
10:56 PM 42.8 °F 37.5 °F 37.4 °F 81% 30.31 in 10.0 mi NE 9.2 mph - N/A   Overcast
11:16 PM 42.8 °F 38.0 °F 37.4 °F 81% 30.32 in 10.0 mi NNE 8.1 mph - N/A   Mostly Cloudy
11:36 PM 42.8 °F 36.2 °F 37.4 °F 81% 30.31 in 10.0 mi NE 12.7 mph - N/A   Scattered Clouds
11:56 PM 41.0 °F 34.3 °F 37.4 °F 87% 30.31 in 10.0 mi NNE 11.5 mph - N/A   Partly Cloudy